Time;durP1;ratioP1;P1;durP2;ratioP2;P2;SDS_P1;SDS_P2;PMS_P1;PMS_P2;Temp;Humidity;BMP_temperature;BMP_pressure;BME280_temperature;BME280_humidity;BME280_pressure;Samples;Min_cycle;Max_cycle;Signal;HPM_P1;HPM_P2
2021/04/01 00:00:44;;;;;;;11.80;3.95;;;13.60;61.90;;;;;;5096507;28;20024;-51
2021/04/01 00:03:10;;;;;;;8.98;3.85;;;13.60;61.80;;;;;;5096055;28;20520;-51
2021/04/01 00:05:35;;;;;;;12.02;4.15;;;13.60;61.90;;;;;;5096217;28;20040;-51
2021/04/01 00:08:01;;;;;;;9.68;4.50;;;13.60;61.90;;;;;;5096402;28;20035;-51
2021/04/01 00:10:30;;;;;;;9.52;4.78;;;13.50;61.80;;;;;;5096683;28;20103;-51
2021/04/01 00:12:56;;;;;;;9.30;4.22;;;13.50;62.00;;;;;;5095762;28;20035;-51
2021/04/01 00:15:22;;;;;;;10.45;4.25;;;13.50;62.00;;;;;;5096391;28;20040;-51
2021/04/01 00:17:48;;;;;;;15.75;5.13;;;13.50;62.00;;;;;;5095865;28;20355;-51
2021/04/01 00:20:15;;;;;;;10.23;4.25;;;13.50;62.10;;;;;;5096066;28;20028;-51
2021/04/01 00:22:41;;;;;;;10.85;4.32;;;13.50;62.10;;;;;;5095637;28;20077;-51
2021/04/01 00:25:08;;;;;;;23.88;5.28;;;13.50;62.10;;;;;;5096171;28;20032;-51
2021/04/01 00:27:34;;;;;;;14.48;5.20;;;13.50;62.10;;;;;;5095734;28;20077;-51
2021/04/01 00:30:00;;;;;;;8.95;3.92;;;13.40;62.10;;;;;;5096040;28;20028;-51
2021/04/01 00:32:26;;;;;;;17.90;4.15;;;13.40;62.10;;;;;;5095479;28;20017;-51
2021/04/01 00:34:51;;;;;;;16.73;4.78;;;13.40;62.10;;;;;;5095614;28;20028;-51
2021/04/01 00:37:17;;;;;;;9.93;4.75;;;13.40;62.10;;;;;;5095672;28;20107;-51
2021/04/01 00:39:43;;;;;;;15.18;4.43;;;13.40;62.10;;;;;;5095942;28;20024;-51
2021/04/01 00:42:08;;;;;;;11.32;3.92;;;13.40;62.20;;;;;;5095391;28;20028;-51
2021/04/01 00:44:35;;;;;;;7.97;4.22;;;13.40;62.20;;;;;;5095645;28;20572;-51
2021/04/01 00:47:04;;;;;;;9.57;3.70;;;13.40;62.20;;;;;;5095869;28;20028;-51
2021/04/01 00:49:30;;;;;;;8.77;4.60;;;13.40;62.30;;;;;;5095907;28;20047;-51
2021/04/01 00:51:56;;;;;;;9.10;4.20;;;13.40;62.30;;;;;;5095162;28;20362;-51
2021/04/01 00:54:21;;;;;;;13.82;4.90;;;13.30;62.30;;;;;;5095820;28;20070;-51
2021/04/01 00:56:47;;;;;;;13.93;4.40;;;13.30;62.30;;;;;;5095431;28;20410;-51
2021/04/01 00:59:12;;;;;;;11.38;4.13;;;13.40;62.40;;;;;;5096044;28;20620;-51
2021/04/01 01:01:45;;;;;;;11.60;4.70;;;13.30;62.40;;;;;;5094727;28;20032;-51
2021/04/01 01:04:12;;;;;;;8.43;4.28;;;13.30;62.40;;;;;;5095547;28;20047;-51
2021/04/01 01:06:39;;;;;;;7.05;3.67;;;13.30;63.20;;;;;;5095184;28;20102;-51
2021/04/01 01:09:06;;;;;;;8.93;4.10;;;13.30;63.30;;;;;;5094753;28;20032;-51
2021/04/01 01:11:33;;;;;;;8.35;4.28;;;13.30;62.50;;;;;;5095055;28;20048;-51
2021/04/01 01:14:00;;;;;;;9.18;3.88;;;13.30;62.50;;;;;;5094887;28;20073;-51
2021/04/01 01:16:25;;;;;;;15.82;4.20;;;13.30;62.70;;;;;;5094829;28;20447;-51
2021/04/01 01:18:51;;;;;;;10.82;4.10;;;13.30;62.60;;;;;;5095102;28;20024;-51
2021/04/01 01:21:17;;;;;;;13.20;3.72;;;13.30;62.60;;;;;;5094849;28;20101;-51
2021/04/01 01:23:43;;;;;;;8.52;3.70;;;13.30;62.70;;;;;;5094440;28;20036;-51
2021/04/01 01:26:09;;;;;;;7.22;3.65;;;13.30;62.70;;;;;;5094850;28;20024;-51
2021/04/01 01:28:35;;;;;;;9.27;3.55;;;13.20;62.60;;;;;;5094654;28;20032;-51
2021/04/01 01:31:01;;;;;;;8.93;3.97;;;13.20;62.70;;;;;;5094623;28;20032;-51
2021/04/01 01:33:27;;;;;;;11.63;4.30;;;13.20;62.70;;;;;;5094484;28;20210;-51
2021/04/01 01:35:54;;;;;;;9.15;3.85;;;13.20;62.80;;;;;;5094859;28;20027;-51
2021/04/01 01:38:21;;;;;;;10.52;3.90;;;13.20;62.70;;;;;;5094506;28;20031;-51
2021/04/01 01:40:47;;;;;;;11.23;4.15;;;13.20;62.80;;;;;;5094469;28;20112;-51
2021/04/01 01:43:14;;;;;;;9.48;3.85;;;13.20;63.60;;;;;;5093921;28;20123;-51
2021/04/01 01:45:42;;;;;;;8.45;3.60;;;13.20;62.90;;;;;;5094235;28;20111;-51
2021/04/01 01:48:08;;;;;;;10.70;4.15;;;13.20;62.90;;;;;;5094572;28;20031;-51
2021/04/01 01:50:35;;;;;;;9.70;3.67;;;13.20;62.90;;;;;;5094227;28;20028;-51
2021/04/01 01:53:02;;;;;;;11.15;3.47;;;13.10;62.80;;;;;;5093892;28;20409;-51
2021/04/01 01:55:29;;;;;;;10.07;4.07;;;13.10;62.90;;;;;;5094331;28;20028;-51
2021/04/01 01:57:55;;;;;;;8.32;3.78;;;13.10;62.90;;;;;;5093869;28;20078;-51
2021/04/01 02:00:44;;;;;;;8.98;3.47;;;13.10;62.90;;;;;;5094313;28;20363;-51
2021/04/01 02:03:11;;;;;;;17.08;3.88;;;13.10;62.90;;;;;;5084498;28;20493;-51
2021/04/01 02:05:37;;;;;;;11.88;3.63;;;13.10;62.90;;;;;;5094172;28;20028;-51
2021/04/01 02:08:04;;;;;;;15.73;3.90;;;13.10;63.00;;;;;;5093985;28;20450;-51
2021/04/01 02:10:36;;;;;;;10.38;3.83;;;13.10;63.00;;;;;;5093650;28;20039;-51
2021/04/01 02:13:02;;;;;;;6.53;3.80;;;13.10;63.00;;;;;;5093496;28;20028;-51
2021/04/01 02:15:39;;;;;;;9.80;3.78;;;13.00;63.00;;;;;;5094216;28;20028;-51
2021/04/01 02:18:07;;;;;;;12.45;4.13;;;13.10;63.10;;;;;;5093822;28;20110;-51
2021/04/01 02:20:45;;;;;;;9.68;3.40;;;13.00;63.10;;;;;;5092865;28;20468;-51
2021/04/01 02:23:21;;;;;;;8.68;3.67;;;13.00;63.10;;;;;;5093721;28;20370;-51
2021/04/01 02:25:48;;;;;;;8.38;3.33;;;13.00;63.10;;;;;;5094017;28;20024;-51
2021/04/01 02:28:15;;;;;;;14.60;3.63;;;13.00;63.20;;;;;;5093772;28;20032;-51
2021/04/01 02:30:46;;;;;;;7.15;3.42;;;13.00;63.90;;;;;;5093844;28;20414;-51
2021/04/01 02:33:12;;;;;;;10.35;3.90;;;13.00;63.20;;;;;;5093792;28;20022;-51
2021/04/01 02:35:38;;;;;;;10.52;3.78;;;13.00;63.20;;;;;;5093406;28;20101;-51
2021/04/01 02:38:04;;;;;;;13.43;4.07;;;13.00;63.20;;;;;;5093360;28;20447;-51
2021/04/01 02:40:31;;;;;;;7.68;3.80;;;13.00;63.20;;;;;;5093566;28;20039;-51
2021/04/01 02:42:57;;;;;;;13.60;3.75;;;13.00;63.20;;;;;;5093097;28;20115;-51
2021/04/01 02:48:45;;;;;;;7.53;3.78;;;13.00;63.30;;;;;;5066300;28;20090;-51
2021/04/01 02:54:33;;;;;;;7.03;3.63;;;12.90;63.30;;;;;;5075372;28;20051;-51
2021/04/01 02:56:58;;;;;;;10.00;4.07;;;12.90;63.40;;;;;;5092515;28;20048;-51
2021/04/01 02:59:24;;;;;;;8.13;3.35;;;12.90;63.40;;;;;;5093262;28;20050;-51
2021/04/01 03:01:50;;;;;;;11.65;3.13;;;12.90;63.40;;;;;;5092758;28;20320;-51
2021/04/01 03:04:15;;;;;;;7.57;3.55;;;12.90;63.50;;;;;;5093217;28;20043;-51
2021/04/01 03:06:41;;;;;;;14.23;4.20;;;12.90;63.50;;;;;;5093133;28;20020;-51
2021/04/01 03:09:07;;;;;;;7.18;3.50;;;12.90;63.50;;;;;;5091324;28;20025;-51
2021/04/01 03:11:32;;;;;;;11.05;4.18;;;12.90;63.50;;;;;;5091971;28;20099;-51
2021/04/01 03:13:58;;;;;;;14.65;3.60;;;12.90;63.50;;;;;;5092867;28;20035;-51
2021/04/01 03:16:25;;;;;;;10.02;4.07;;;12.90;63.50;;;;;;5093149;28;20024;-51
2021/04/01 03:18:50;;;;;;;14.98;3.72;;;12.90;63.60;;;;;;5092939;28;20028;-51
2021/04/01 03:21:16;;;;;;;9.07;3.65;;;12.90;63.50;;;;;;5092753;28;20100;-51
2021/04/01 03:23:41;;;;;;;8.18;3.33;;;12.80;63.50;;;;;;5092718;28;20089;-51
2021/04/01 03:26:07;;;;;;;10.27;3.95;;;12.80;63.50;;;;;;5092635;28;20058;-51
2021/04/01 03:28:33;;;;;;;6.68;3.22;;;12.80;63.60;;;;;;5092226;28;20030;-51
2021/04/01 03:31:01;;;;;;;14.00;3.95;;;12.80;63.60;;;;;;5093198;28;20085;-51
2021/04/01 03:33:28;;;;;;;15.43;4.55;;;12.80;63.60;;;;;;5097060;28;20113;-51
2021/04/01 03:35:54;;;;;;;15.18;4.22;;;12.80;63.60;;;;;;5096994;28;20032;-51
2021/04/01 03:38:20;;;;;;;8.95;3.45;;;12.80;63.60;;;;;;5096882;28;20549;-51
2021/04/01 03:40:47;;;;;;;6.43;3.03;;;12.80;63.70;;;;;;5096747;28;20020;-51
2021/04/01 03:43:12;;;;;;;6.05;3.22;;;12.80;63.70;;;;;;5096787;28;20039;-51
2021/04/01 03:45:39;;;;;;;9.38;3.78;;;12.80;63.70;;;;;;5086076;28;20100;-51
2021/04/01 03:48:05;;;;;;;8.55;3.55;;;12.80;63.70;;;;;;5084753;28;20020;-51
2021/04/01 03:50:30;;;;;;;8.88;3.83;;;12.80;63.70;;;;;;5090667;28;20581;-51
2021/04/01 03:52:56;;;;;;;5.75;3.30;;;12.80;63.80;;;;;;5085719;28;20024;-51
2021/04/01 03:57:49;;;;;;;12.18;4.28;;;12.70;63.70;;;;;;5076566;28;20043;-51
2021/04/01 04:00:22;;;;;;;12.00;3.75;;;12.80;63.80;;;;;;5084382;28;20031;-51
2021/04/01 04:05:48;;;;;;;11.05;4.40;;;12.70;63.80;;;;;;5072233;28;20118;-51
2021/04/01 04:13:28;;;;;;;21.23;4.18;;;12.70;64.00;;;;;;5096462;28;20028;-51
2021/04/01 04:15:53;;;;;;;9.90;3.95;;;12.70;64.00;;;;;;5096298;28;20067;-51
2021/04/01 04:18:20;;;;;;;10.52;3.38;;;12.70;64.00;;;;;;5096075;28;20512;-51
2021/04/01 04:20:46;;;;;;;9.73;4.10;;;12.70;63.90;;;;;;5096026;28;20446;-51
2021/04/01 04:23:13;;;;;;;17.35;4.68;;;12.70;63.90;;;;;;5095921;28;20044;-51
2021/04/01 04:25:39;;;;;;;14.23;4.60;;;12.70;64.70;;;;;;5096019;28;20052;-51
2021/04/01 04:30:49;;;;;;;9.32;4.03;;;12.70;64.10;;;;;;5095996;28;20069;-51
2021/04/01 04:33:15;;;;;;;10.07;4.65;;;12.70;64.00;;;;;;5096071;28;20103;-51
2021/04/01 04:35:41;;;;;;;12.18;4.55;;;12.70;64.00;;;;;;5095754;28;20028;-51
2021/04/01 04:38:06;;;;;;;14.63;4.35;;;12.60;64.00;;;;;;5096013;28;20031;-51
2021/04/01 04:40:32;;;;;;;10.18;4.18;;;12.60;64.00;;;;;;5093055;28;20376;-51
2021/04/01 04:42:58;;;;;;;14.05;4.22;;;12.60;64.00;;;;;;5083595;28;20033;-51
2021/04/01 04:45:24;;;;;;;10.43;4.07;;;12.70;64.10;;;;;;5084705;28;20435;-51
2021/04/01 04:47:49;;;;;;;9.52;3.85;;;12.60;64.10;;;;;;5085569;28;20098;-51
2021/04/01 04:50:15;;;;;;;13.52;4.20;;;12.60;64.10;;;;;;5095475;28;20024;-51
2021/04/01 04:52:41;;;;;;;11.77;3.92;;;12.60;64.10;;;;;;5095343;28;20032;-50
2021/04/01 04:55:10;;;;;;;8.45;4.18;;;12.60;64.10;;;;;;5095457;28;20043;-51
2021/04/01 04:57:41;;;;;;;13.32;5.18;;;12.60;64.10;;;;;;5095523;28;20408;-51
2021/04/01 05:05:33;;;;;;;11.15;3.60;;;12.60;64.20;;;;;;5095294;28;20039;-51
2021/04/01 05:07:59;;;;;;;9.52;3.95;;;12.50;64.20;;;;;;5095395;28;20027;-51
2021/04/01 05:10:24;;;;;;;10.77;4.00;;;12.60;64.20;;;;;;5094984;28;20038;-51
2021/04/01 05:15:30;;;;;;;8.93;3.88;;;12.50;64.20;;;;;;5095507;28;20027;-51
2021/04/01 05:18:11;;;;;;;12.05;4.32;;;12.60;64.40;;;;;;5095174;28;20031;-51
2021/04/01 05:20:37;;;;;;;14.77;3.78;;;12.60;64.40;;;;;;5094666;28;20039;-51
2021/04/01 05:23:08;;;;;;;11.35;4.97;;;12.50;64.50;;;;;;5081790;28;20032;-51
2021/04/01 05:25:33;;;;;;;11.75;4.47;;;12.60;64.70;;;;;;5074699;28;20071;-51
2021/04/01 05:28:06;;;;;;;8.13;3.55;;;12.50;64.70;;;;;;5074813;28;20047;-51
2021/04/01 05:30:31;;;;;;;6.40;3.63;;;12.50;64.80;;;;;;5074608;28;20115;-51
2021/04/01 05:32:57;;;;;;;12.73;4.35;;;12.50;64.90;;;;;;5074308;28;20060;-51
2021/04/01 05:35:23;;;;;;;10.13;4.40;;;12.50;65.20;;;;;;5074207;28;20043;-51
2021/04/01 05:37:49;;;;;;;12.48;4.85;;;12.50;65.10;;;;;;5074522;28;20028;-51
2021/04/01 05:40:15;;;;;;;9.63;4.68;;;12.50;65.20;;;;;;5079434;28;20029;-51
2021/04/01 05:42:45;;;;;;;12.35;4.13;;;12.60;65.30;;;;;;5074214;28;20040;-51
2021/04/01 05:47:44;;;;;;;11.30;4.35;;;12.60;65.60;;;;;;5074262;28;20032;-51
2021/04/01 05:50:48;;;;;;;17.80;4.60;;;12.60;65.70;;;;;;5074288;28;20028;-51
2021/04/01 06:07:01;;;;;;;11.70;3.78;;;12.70;66.00;;;;;;5093875;28;20020;-51
2021/04/01 06:09:34;;;;;;;16.48;5.38;;;12.70;65.60;;;;;;5094237;28;20070;-51
2021/04/01 06:12:00;;;;;;;17.65;4.82;;;12.80;64.40;;;;;;5094110;28;20120;-51
2021/04/01 06:14:49;;;;;;;11.02;4.53;;;12.90;64.00;;;;;;5094112;28;20422;-51
2021/04/01 06:17:18;;;;;;;13.57;4.60;;;12.90;63.70;;;;;;5083639;28;20038;-51
2021/04/01 06:19:47;;;;;;;9.77;4.30;;;12.90;63.50;;;;;;5094074;28;20154;-51
2021/04/01 06:22:13;;;;;;;9.48;4.50;;;13.00;63.30;;;;;;5093636;28;20020;-51
2021/04/01 06:24:43;;;;;;;13.00;4.30;;;13.00;63.10;;;;;;5093874;28;20477;-51
2021/04/01 06:29:41;;;;;;;9.63;4.73;;;13.10;62.90;;;;;;5093545;28;20059;-51
2021/04/01 06:32:23;;;;;;;12.57;4.32;;;13.10;62.80;;;;;;5093456;28;20267;-51
2021/04/01 06:34:50;;;;;;;14.68;4.72;;;13.10;62.70;;;;;;5093820;28;20358;-51
2021/04/01 06:38:19;;;;;;;13.90;5.03;;;13.10;62.60;;;;;;5093469;28;20197;-51
2021/04/01 06:40:07;;;;;;;14.82;4.93;;;13.20;62.60;;;;;;5082354;28;20047;-51
2021/04/01 06:42:42;;;;;;;15.73;6.15;;;13.20;62.40;;;;;;5092994;28;20095;-51
2021/04/01 06:45:09;;;;;;;14.95;4.18;;;13.30;63.20;;;;;;5093653;28;20147;-51
2021/04/01 06:47:36;;;;;;;17.75;5.15;;;13.30;62.20;;;;;;5093407;28;20109;-51
2021/04/01 06:50:07;;;;;;;15.60;5.60;;;13.40;62.30;;;;;;5093470;28;20077;-51
2021/04/01 06:52:43;;;;;;;21.90;5.32;;;13.40;62.30;;;;;;5092842;28;20465;-51
2021/04/01 06:55:21;;;;;;;13.25;5.72;;;13.40;62.10;;;;;;5093223;28;20035;-51
2021/04/01 06:58:06;;;;;;;12.77;5.13;;;13.50;62.20;;;;;;5093486;28;20104;-51
2021/04/01 07:03:36;;;;;;;14.90;5.07;;;13.50;62.30;;;;;;5093106;28;20120;-51
2021/04/01 07:06:08;;;;;;;12.73;4.65;;;13.60;62.20;;;;;;5092929;28;20028;-51
2021/04/01 07:11:33;;;;;;;19.30;5.50;;;13.70;62.20;;;;;;5092617;28;20032;-51
2021/04/01 07:14:04;;;;;;;21.63;6.22;;;13.80;62.20;;;;;;5092772;28;20093;-51
2021/04/01 07:16:49;;;;;;;15.73;6.43;;;13.80;62.20;;;;;;5093171;28;20362;-51
2021/04/01 07:36:04;;;;;;;17.55;4.60;;;14.20;62.20;;;;;;5073195;28;20063;-49
2021/04/01 07:47:17;;;;;;;23.15;6.07;;;14.40;61.70;;;;;;5072799;28;20032;-49
2021/04/01 07:49:47;;;;;;;19.58;7.13;;;14.50;61.60;;;;;;5072809;28;20020;-49
2021/04/01 07:52:13;;;;;;;20.88;7.85;;;14.50;61.50;;;;;;5072370;28;20035;-49
2021/04/01 08:05:33;;;;;;;17.35;7.25;;;14.80;61.00;;;;;;5092575;28;20028;-50
2021/04/01 08:08:07;;;;;;;7.03;3.58;;;14.90;60.90;;;;;;5092612;28;20025;-50
2021/04/01 08:10:39;;;;;;;20.45;6.80;;;14.90;60.90;;;;;;5092782;28;20032;-49
2021/04/01 08:13:07;;;;;;;9.88;4.75;;;15.00;60.80;;;;;;5092324;28;20032;-50
2021/04/01 08:15:40;;;;;;;15.60;5.15;;;15.00;60.60;;;;;;5092639;28;20024;-50
2021/04/01 08:18:17;;;;;;;19.58;7.97;;;15.10;60.50;;;;;;5092838;28;20093;-49
2021/04/01 08:20:46;;;;;;;17.83;7.07;;;15.20;60.50;;;;;;5096342;28;20024;-49
2021/04/01 08:23:22;;;;;;;20.52;6.65;;;15.20;60.50;;;;;;5095809;28;20162;-49
2021/04/01 08:25:56;;;;;;;14.75;6.30;;;15.30;60.70;;;;;;5096276;28;20024;-49
2021/04/01 08:29:06;;;;;;;11.50;6.22;;;15.40;60.60;;;;;;5095573;28;20032;-50
2021/04/01 08:36:27;;;;;;;19.02;7.30;;;15.50;60.50;;;;;;5095934;28;20032;-49
2021/04/01 08:38:53;;;;;;;19.05;6.63;;;15.60;60.50;;;;;;5095687;28;20032;-50
2021/04/01 08:41:35;;;;;;;18.55;7.25;;;15.70;60.30;;;;;;5095536;28;20028;-49
2021/04/01 08:44:42;;;;;;;13.48;6.22;;;15.70;60.20;;;;;;5085552;28;20048;-49
2021/04/01 08:47:39;;;;;;;11.30;6.00;;;15.80;60.10;;;;;;5075113;28;20064;-49
2021/04/01 08:50:23;;;;;;;15.93;7.30;;;15.90;60.10;;;;;;5075604;28;20013;-50
2021/04/01 08:53:17;;;;;;;23.05;7.97;;;15.90;60.00;;;;;;5075058;28;20372;-49
2021/04/01 08:55:53;;;;;;;11.98;5.50;;;16.00;59.90;;;;;;5075269;28;20036;-49
2021/04/01 08:58:34;;;;;;;8.18;4.47;;;16.10;59.90;;;;;;5075291;28;20032;-49
2021/04/01 09:01:14;;;;;;;12.13;6.95;;;16.20;59.90;;;;;;5089417;28;20028;-50
2021/04/01 09:03:45;;;;;;;18.15;7.57;;;16.30;59.90;;;;;;5094875;28;20095;-49
2021/04/01 09:06:16;;;;;;;15.35;6.47;;;16.40;59.90;;;;;;5091949;28;20111;-49
2021/04/01 09:08:51;;;;;;;25.40;7.63;;;16.40;59.80;;;;;;5075909;28;20039;-49
2021/04/01 09:11:18;;;;;;;13.95;5.50;;;16.50;59.60;;;;;;5074125;28;20039;-49
2021/04/01 09:13:54;;;;;;;9.02;4.55;;;16.50;59.60;;;;;;5075219;28;20038;-50
2021/04/01 09:16:28;;;;;;;14.82;6.50;;;16.60;59.30;;;;;;5074956;28;20463;-49
2021/04/01 09:19:02;;;;;;;21.52;7.50;;;16.60;59.30;;;;;;5077588;28;20335;-49
2021/04/01 09:21:37;;;;;;;19.52;7.60;;;16.70;59.30;;;;;;5092201;28;20031;-49
2021/04/01 09:24:09;;;;;;;21.90;7.07;;;16.70;59.20;;;;;;5082094;28;20122;-49
2021/04/01 09:26:36;;;;;;;20.40;6.93;;;16.80;59.10;;;;;;5095050;28;20091;-50
2021/04/01 09:29:04;;;;;;;15.30;7.28;;;16.90;59.10;;;;;;5094080;28;20190;-49
2021/04/01 09:31:49;;;;;;;9.07;4.57;;;17.00;59.80;;;;;;5094971;28;20055;-50
2021/04/01 09:34:17;;;;;;;15.32;5.35;;;17.10;58.80;;;;;;5094843;28;20104;-50
2021/04/01 09:36:44;;;;;;;10.20;4.63;;;17.10;58.60;;;;;;5094586;28;20347;-50
2021/04/01 09:39:26;;;;;;;26.35;5.10;;;17.10;58.40;;;;;;5094363;28;20035;-49
2021/04/01 09:42:03;;;;;;;15.98;4.97;;;17.20;58.20;;;;;;5094458;28;20024;-49
2021/04/01 09:44:28;;;;;;;10.25;4.47;;;17.20;58.20;;;;;;5094153;28;20120;-49
2021/04/01 09:47:17;;;;;;;11.73;5.30;;;17.20;57.60;;;;;;5094643;28;20040;-49
2021/04/01 09:50:03;;;;;;;19.42;6.70;;;17.20;57.50;;;;;;5094205;28;20028;-49
2021/04/01 09:52:29;;;;;;;5.43;2.90;;;17.20;57.50;;;;;;5075180;28;20032;-50
2021/04/01 09:55:04;;;;;;;13.05;4.05;;;17.30;57.60;;;;;;5074300;28;20336;-49
2021/04/01 09:57:56;;;;;;;15.57;4.68;;;17.30;57.30;;;;;;5092500;28;20042;-49
2021/04/01 10:01:00;;;;;;;10.93;4.65;;;17.30;57.10;;;;;;5089759;28;20143;-49
2021/04/01 10:03:57;;;;;;;6.43;3.08;;;17.30;57.30;;;;;;5094000;28;20076;-49
2021/04/01 10:06:35;;;;;;;20.50;3.83;;;17.30;57.60;;;;;;5031434;28;20100;-49
2021/04/01 10:09:27;;;;;;;11.02;4.18;;;17.40;57.50;;;;;;5031537;28;20025;-49
2021/04/01 10:11:59;;;;;;;12.70;4.93;;;17.40;57.40;;;;;;5028709;28;20037;-49
2021/04/01 10:14:27;;;;;;;16.95;5.63;;;17.40;57.60;;;;;;5031500;28;20088;-49
2021/04/01 10:17:04;;;;;;;12.05;6.38;;;17.40;57.70;;;;;;5031242;28;20037;-49
2021/04/01 10:19:37;;;;;;;13.30;4.53;;;17.30;57.80;;;;;;5031239;28;20026;-49
2021/04/01 10:22:03;;;;;;;11.38;4.18;;;17.40;58.00;;;;;;5031079;28;20033;-49
2021/04/01 10:24:32;;;;;;;17.80;6.50;;;17.40;58.20;;;;;;5022312;28;20168;-49
2021/04/01 10:27:24;;;;;;;9.95;4.72;;;17.40;58.10;;;;;;5011637;28;20041;-49
2021/04/01 10:32:15;;;;;;;8.13;3.45;;;17.40;58.00;;;;;;5011289;28;20026;-49
2021/04/01 10:35:15;;;;;;;17.92;6.68;;;17.40;58.10;;;;;;5011344;28;20050;-50
